Time;durP1;ratioP1;P1;durP2;ratioP2;P2;SDS_P1;SDS_P2;PMS_P1;PMS_P2;Temp;Humidity;BMP_temperature;BMP_pressure;BME280_temperature;BME280_humidity;BME280_pressure;Samples;Min_cycle;Max_cycle;Signal;HPM_P1;HPM_P2
2021/05/31 00:00:01;;;;;;;2.70;1.67;;;23.80;30.90;;;;;;5008883;28;20223;-42
2021/05/31 00:02:27;;;;;;;2.35;1.88;;;23.80;31.00;;;;;;5019272;28;20198;-42
2021/05/31 00:04:53;;;;;;;1.70;1.58;;;23.80;31.00;;;;;;5011004;28;20222;-44
2021/05/31 00:07:19;;;;;;;1.75;1.65;;;23.80;31.00;;;;;;5002726;28;20212;-44
2021/05/31 00:09:45;;;;;;;2.42;1.83;;;23.80;31.00;;;;;;4994595;28;20735;-43
2021/05/31 00:12:11;;;;;;;2.03;1.50;;;23.80;31.00;;;;;;5032125;28;20213;-45
2021/05/31 00:14:37;;;;;;;1.60;1.50;;;23.80;31.00;;;;;;4999880;28;20199;-44
2021/05/31 00:17:03;;;;;;;1.67;1.58;;;23.80;31.10;;;;;;5018967;28;20206;-44
2021/05/31 00:19:29;;;;;;;2.10;1.90;;;23.80;31.20;;;;;;5009773;28;20558;-45
2021/05/31 00:21:55;;;;;;;1.85;1.70;;;23.70;31.00;;;;;;5011105;28;20237;-42
2021/05/31 00:24:21;;;;;;;1.75;1.65;;;23.70;31.10;;;;;;5001706;28;20227;-43
2021/05/31 00:26:47;;;;;;;1.63;1.52;;;23.70;31.10;;;;;;5006566;28;20210;-49
2021/05/31 00:29:13;;;;;;;2.38;1.75;;;23.70;31.00;;;;;;5013321;28;20223;-44
2021/05/31 00:31:39;;;;;;;1.85;1.60;;;23.70;31.10;;;;;;5024300;28;20206;-47
2021/05/31 00:34:05;;;;;;;1.40;1.30;;;23.70;31.10;;;;;;5019924;28;20196;-48
2021/05/31 00:36:31;;;;;;;1.60;1.50;;;23.70;31.10;;;;;;5004318;28;20207;-45
2021/05/31 00:38:57;;;;;;;1.70;1.60;;;23.70;31.10;;;;;;5013731;28;20285;-42
2021/05/31 00:41:23;;;;;;;1.70;1.55;;;23.70;31.10;;;;;;5018829;28;20226;-49
2021/05/31 00:43:49;;;;;;;1.75;1.65;;;23.70;31.20;;;;;;5006896;28;20222;-43
2021/05/31 00:46:15;;;;;;;1.60;1.50;;;23.70;31.20;;;;;;5004625;28;20212;-47
2021/05/31 00:48:41;;;;;;;1.58;1.48;;;23.70;31.20;;;;;;5029122;28;20510;-48
2021/05/31 00:51:06;;;;;;;1.70;1.60;;;23.70;31.20;;;;;;5015561;28;20210;-47
2021/05/31 00:53:32;;;;;;;2.28;1.77;;;23.70;31.20;;;;;;5032025;28;20272;-51
2021/05/31 00:55:58;;;;;;;2.22;1.73;;;23.70;31.20;;;;;;5030242;28;20213;-43
2021/05/31 00:58:27;;;;;;;1.63;1.52;;;23.70;31.20;;;;;;4994319;28;20632;-48
2021/05/31 01:00:53;;;;;;;1.70;1.60;;;23.70;31.20;;;;;;4998997;28;20220;-49
2021/05/31 01:03:19;;;;;;;2.10;1.88;;;23.70;31.30;;;;;;5032727;28;20221;-53
2021/05/31 01:05:46;;;;;;;1.52;1.42;;;23.70;31.30;;;;;;5012598;28;20261;-50
2021/05/31 01:08:12;;;;;;;2.05;1.70;;;23.70;31.30;;;;;;5011884;28;20203;-43
2021/05/31 01:10:38;;;;;;;1.77;1.40;;;23.70;31.30;;;;;;5024620;28;20313;-49
2021/05/31 01:13:04;;;;;;;1.67;1.50;;;23.70;31.30;;;;;;5026566;28;20206;-45
2021/05/31 01:15:30;;;;;;;1.73;1.55;;;23.70;31.40;;;;;;5013087;28;20203;-47
2021/05/31 01:17:56;;;;;;;2.00;1.80;;;23.70;31.30;;;;;;4998423;28;20212;-48
2021/05/31 01:20:22;;;;;;;1.70;1.60;;;23.70;31.30;;;;;;4998873;28;20228;-47
2021/05/31 01:22:48;;;;;;;1.48;1.38;;;23.70;31.40;;;;;;5013340;28;20631;-45
2021/05/31 01:25:14;;;;;;;2.35;1.60;;;23.70;31.40;;;;;;5016545;28;20207;-49
2021/05/31 01:27:40;;;;;;;1.92;1.58;;;23.70;31.40;;;;;;5005570;28;20458;-48
2021/05/31 01:30:06;;;;;;;1.83;1.55;;;23.70;31.40;;;;;;4995784;28;20235;-54
2021/05/31 01:32:32;;;;;;;1.90;1.65;;;23.70;31.50;;;;;;5012033;28;20614;-49
2021/05/31 01:34:58;;;;;;;1.77;1.58;;;23.70;31.50;;;;;;5015063;28;20569;-52
2021/05/31 01:37:24;;;;;;;1.63;1.48;;;23.70;31.50;;;;;;5023916;28;20203;-46
2021/05/31 01:39:50;;;;;;;1.83;1.70;;;23.70;31.50;;;;;;4994722;28;20227;-48
2021/05/31 01:42:16;;;;;;;1.70;1.40;;;23.70;31.50;;;;;;5001570;28;20243;-42
2021/05/31 01:44:42;;;;;;;1.58;1.48;;;23.70;31.50;;;;;;4993064;28;20631;-51
2021/05/31 01:47:08;;;;;;;1.63;1.52;;;23.70;31.60;;;;;;5010232;28;20199;-46
2021/05/31 01:49:34;;;;;;;1.55;1.45;;;23.70;31.60;;;;;;4998312;28;20227;-48
2021/05/31 01:52:00;;;;;;;1.73;1.40;;;23.70;31.60;;;;;;5004260;28;20351;-48
2021/05/31 01:54:26;;;;;;;1.80;1.50;;;23.70;31.60;;;;;;4992960;28;20216;-50
2021/05/31 01:56:52;;;;;;;1.60;1.50;;;23.70;31.60;;;;;;5005015;28;20203;-48
2021/05/31 01:59:18;;;;;;;1.52;1.42;;;23.70;31.60;;;;;;5008031;28;20652;-47
2021/05/31 02:01:44;;;;;;;1.42;1.33;;;23.70;31.60;;;;;;5006711;28;20665;-50
2021/05/31 02:04:10;;;;;;;1.60;1.50;;;23.70;31.60;;;;;;5010804;28;20196;-49
2021/05/31 02:06:36;;;;;;;2.20;1.70;;;23.70;31.70;;;;;;5002652;28;20203;-45
2021/05/31 02:09:02;;;;;;;1.63;1.52;;;23.70;31.70;;;;;;5009149;28;20222;-44
2021/05/31 02:11:28;;;;;;;1.50;1.40;;;23.70;31.70;;;;;;5023232;28;20885;-50
2021/05/31 02:13:54;;;;;;;1.60;1.50;;;23.70;31.70;;;;;;4994103;28;20302;-52
2021/05/31 02:16:20;;;;;;;1.65;1.55;;;23.70;31.70;;;;;;5006797;28;20203;-51
2021/05/31 02:18:46;;;;;;;1.60;1.50;;;23.70;31.70;;;;;;5002578;28;20231;-42
2021/05/31 02:21:12;;;;;;;2.13;1.60;;;23.70;31.70;;;;;;5018091;28;20514;-46
2021/05/31 02:23:38;;;;;;;1.55;1.45;;;23.70;31.80;;;;;;5004848;28;20335;-43
2021/05/31 02:26:04;;;;;;;1.50;1.40;;;23.70;31.80;;;;;;5007920;28;20199;-43
2021/05/31 02:28:30;;;;;;;2.10;1.50;;;23.70;31.90;;;;;;5010659;28;20655;-45
2021/05/31 02:30:56;;;;;;;2.65;1.40;;;23.70;31.90;;;;;;5000157;28;20215;-44
2021/05/31 02:33:22;;;;;;;1.70;1.60;;;23.70;31.90;;;;;;5009524;28;20344;-42
2021/05/31 02:35:48;;;;;;;1.98;1.58;;;23.70;31.90;;;;;;5013893;28;20224;-43
2021/05/31 02:38:14;;;;;;;1.70;1.60;;;23.70;31.90;;;;;;5010579;28;20673;-44
2021/05/31 02:40:40;;;;;;;1.70;1.60;;;23.70;31.90;;;;;;5012569;28;20227;-41
2021/05/31 02:43:08;;;;;;;1.60;1.50;;;23.70;31.90;;;;;;5010221;28;20617;-44
2021/05/31 02:45:34;;;;;;;1.73;1.63;;;23.70;31.90;;;;;;5008566;28;20231;-42
2021/05/31 02:48:00;;;;;;;1.48;1.30;;;23.70;31.90;;;;;;5008650;28;20201;-43
2021/05/31 02:50:27;;;;;;;1.60;1.50;;;23.70;31.90;;;;;;5013736;28;20871;-48
2021/05/31 02:52:53;;;;;;;1.42;1.33;;;23.70;31.80;;;;;;5009659;28;20204;-44
2021/05/31 02:55:19;;;;;;;1.67;1.58;;;23.70;32.00;;;;;;5023317;28;20202;-45
2021/05/31 02:57:45;;;;;;;2.30;1.50;;;23.70;32.10;;;;;;5026865;23;20254;-46
2021/05/31 03:00:11;;;;;;;1.58;1.48;;;23.70;32.10;;;;;;5020628;28;20222;-47
2021/05/31 03:02:37;;;;;;;1.50;1.40;;;23.70;31.90;;;;;;5015843;28;20206;-42
2021/05/31 03:05:03;;;;;;;2.13;1.45;;;23.70;32.50;;;;;;5009788;28;20888;-45
2021/05/31 03:07:29;;;;;;;1.27;1.25;;;23.70;31.80;;;;;;5007716;28;20214;-44
2021/05/31 03:09:55;;;;;;;1.58;1.48;;;23.70;31.80;;;;;;5009573;28;20219;-47
2021/05/31 03:12:21;;;;;;;2.20;1.50;;;23.70;31.90;;;;;;5010244;28;20666;-47
2021/05/31 03:14:47;;;;;;;1.42;1.33;;;23.70;31.80;;;;;;4991662;28;20247;-46
2021/05/31 03:17:14;;;;;;;1.40;1.30;;;23.70;31.80;;;;;;5005176;28;20207;-47
2021/05/31 03:19:40;;;;;;;2.15;1.60;;;23.70;31.80;;;;;;5008714;28;20263;-48
2021/05/31 03:22:06;;;;;;;1.60;1.50;;;23.70;31.90;;;;;;5008209;28;20695;-44
2021/05/31 03:24:32;;;;;;;1.65;1.55;;;23.70;31.80;;;;;;5006906;28;20210;-49
2021/05/31 03:26:58;;;;;;;1.50;1.40;;;23.70;31.90;;;;;;5002057;28;20354;-44
2021/05/31 03:29:24;;;;;;;1.58;1.40;;;23.70;31.90;;;;;;5008327;28;20230;-42
2021/05/31 03:31:50;;;;;;;1.30;1.20;;;23.70;31.90;;;;;;5002559;28;20207;-41
2021/05/31 03:34:16;;;;;;;2.00;1.80;;;23.70;31.80;;;;;;5008191;28;20210;-41
2021/05/31 03:36:42;;;;;;;1.40;1.30;;;23.70;31.80;;;;;;5003536;28;20215;-41
2021/05/31 03:39:08;;;;;;;1.50;1.40;;;23.70;31.90;;;;;;5007524;28;20223;-47
2021/05/31 03:41:34;;;;;;;1.50;1.40;;;23.70;31.80;;;;;;5014306;28;20228;-41
2021/05/31 03:44:00;;;;;;;1.40;1.30;;;23.70;31.80;;;;;;4999663;28;20206;-42
2021/05/31 03:46:26;;;;;;;1.60;1.50;;;23.70;31.80;;;;;;5008494;28;20204;-44
2021/05/31 03:48:52;;;;;;;2.10;1.55;;;23.70;31.90;;;;;;5007353;28;20591;-48
2021/05/31 03:51:18;;;;;;;1.70;1.60;;;23.70;31.80;;;;;;5014620;28;20226;-41
2021/05/31 03:53:44;;;;;;;1.50;1.40;;;23.70;31.80;;;;;;5013209;28;20207;-42
2021/05/31 03:56:10;;;;;;;1.48;1.30;;;23.70;31.90;;;;;;5010288;28;20192;-42
2021/05/31 03:58:36;;;;;;;2.15;1.30;;;23.70;31.90;;;;;;4995175;28;20224;-44
2021/05/31 04:01:03;;;;;;;1.98;1.48;;;23.70;31.90;;;;;;5022061;28;20215;-44
2021/05/31 04:03:29;;;;;;;1.67;1.58;;;23.70;31.80;;;;;;5004641;28;20725;-43
2021/05/31 04:06:04;;;;;;;1.70;1.60;;;23.70;31.80;;;;;;5004108;28;20207;-44
2021/05/31 04:13:58;;;;;;;1.67;1.45;;;23.70;31.80;;;;;;5004485;28;20256;-46
2021/05/31 04:16:24;;;;;;;1.58;1.48;;;23.70;31.90;;;;;;5007689;28;20640;-44
2021/05/31 04:18:50;;;;;;;2.25;1.70;;;23.70;31.80;;;;;;4999971;28;20298;-41
2021/05/31 04:21:16;;;;;;;1.60;1.42;;;23.70;31.80;;;;;;5002897;28;20222;-45
2021/05/31 04:23:42;;;;;;;1.48;1.38;;;23.70;31.90;;;;;;5001393;28;20561;-45
2021/05/31 04:26:08;;;;;;;1.60;1.50;;;23.70;31.80;;;;;;5004155;28;20203;-46
2021/05/31 04:28:34;;;;;;;1.63;1.50;;;23.70;31.90;;;;;;5009554;28;20707;-41
2021/05/31 04:31:00;;;;;;;1.50;1.40;;;23.70;31.90;;;;;;4999945;28;20242;-41
2021/05/31 04:33:26;;;;;;;1.50;1.40;;;23.70;31.90;;;;;;5002326;28;20242;-45
2021/05/31 04:35:51;;;;;;;2.03;1.83;;;23.70;31.90;;;;;;5005713;28;20203;-42
2021/05/31 04:38:17;;;;;;;1.73;1.27;;;23.70;31.90;;;;;;5008302;28;20228;-46
2021/05/31 04:40:44;;;;;;;1.88;1.50;;;23.70;31.90;;;;;;5002536;28;20250;-49
2021/05/31 04:43:09;;;;;;;1.50;1.40;;;23.70;31.90;;;;;;5012100;28;20294;-46
2021/05/31 04:45:35;;;;;;;1.50;1.40;;;23.70;31.90;;;;;;5012460;28;20627;-41
2021/05/31 04:48:01;;;;;;;1.92;1.60;;;23.70;31.90;;;;;;5010533;28;20245;-42
2021/05/31 04:50:27;;;;;;;1.65;1.27;;;23.70;31.90;;;;;;5013560;28;20638;-45
2021/05/31 04:52:53;;;;;;;1.60;1.50;;;23.70;31.90;;;;;;5015842;28;20210;-40
2021/05/31 04:55:19;;;;;;;1.40;1.30;;;23.70;32.00;;;;;;5009882;28;20234;-47
2021/05/31 04:57:45;;;;;;;1.92;1.48;;;23.70;32.00;;;;;;5010167;28;20211;-41
2021/05/31 05:00:11;;;;;;;1.67;1.58;;;23.70;32.00;;;;;;5008423;28;20203;-40
2021/05/31 05:02:37;;;;;;;1.52;1.42;;;23.70;32.00;;;;;;5020560;28;20231;-39
2021/05/31 05:05:03;;;;;;;1.88;1.40;;;23.70;32.00;;;;;;5016900;28;20203;-45
2021/05/31 05:07:29;;;;;;;1.48;1.25;;;23.70;32.00;;;;;;5012235;28;20269;-49
2021/05/31 05:09:55;;;;;;;1.50;1.40;;;23.70;32.00;;;;;;5009572;28;20243;-43
2021/05/31 05:12:21;;;;;;;1.30;1.20;;;23.70;32.00;;;;;;5008749;28;20220;-46
2021/05/31 05:14:47;;;;;;;1.50;1.40;;;23.70;32.00;;;;;;4999053;28;20203;-46
2021/05/31 05:17:13;;;;;;;1.35;1.25;;;23.70;32.00;;;;;;5012259;28;20257;-47
2021/05/31 05:19:39;;;;;;;1.73;1.63;;;23.70;32.00;;;;;;5006857;28;20226;-46
2021/05/31 05:22:05;;;;;;;1.63;1.52;;;23.70;32.10;;;;;;5026477;28;20591;-47
2021/05/31 05:24:31;;;;;;;1.48;1.38;;;23.70;32.00;;;;;;5015303;28;20234;-47
2021/05/31 05:26:57;;;;;;;1.50;1.40;;;23.70;32.10;;;;;;5011765;28;20557;-42
2021/05/31 05:29:23;;;;;;;2.13;1.50;;;23.70;32.00;;;;;;5008485;28;20214;-48
2021/05/31 05:31:49;;;;;;;1.60;1.50;;;23.70;32.00;;;;;;5007288;28;20262;-44
2021/05/31 05:34:15;;;;;;;1.50;1.40;;;23.70;32.00;;;;;;5010789;28;20711;-49
2021/05/31 05:36:49;;;;;;;1.60;1.30;;;23.70;32.00;;;;;;5011813;28;20210;-42
2021/05/31 05:42:24;;;;;;;1.50;1.40;;;23.70;31.90;;;;;;4970050;28;20263;-48
2021/05/31 05:47:43;;;;;;;1.20;1.20;;;23.70;32.00;;;;;;5008999;28;20198;-46
2021/05/31 05:50:09;;;;;;;1.48;1.38;;;23.70;32.00;;;;;;5005267;28;20206;-45
2021/05/31 05:52:36;;;;;;;1.90;1.70;;;23.70;31.90;;;;;;4992393;28;20211;-45
2021/05/31 05:55:02;;;;;;;2.13;1.40;;;23.70;31.90;;;;;;4992611;28;20678;-41
2021/05/31 05:57:28;;;;;;;2.33;1.30;;;23.70;31.90;;;;;;5003651;28;20212;-44
2021/05/31 05:59:54;;;;;;;1.70;1.55;;;23.70;32.30;;;;;;5011087;28;20639;-41
2021/05/31 06:02:20;;;;;;;2.03;1.67;;;23.70;32.80;;;;;;5010199;28;20257;-44
2021/05/31 06:04:46;;;;;;;2.83;1.90;;;23.70;32.90;;;;;;5006179;28;20203;-46
2021/05/31 06:07:12;;;;;;;3.00;1.90;;;23.70;33.00;;;;;;5014178;28;20621;-48
2021/05/31 06:09:37;;;;;;;2.17;1.45;;;23.70;32.90;;;;;;4992054;28;20228;-39
2021/05/31 06:12:03;;;;;;;2.92;1.95;;;23.70;32.90;;;;;;5010366;28;20261;-40
2021/05/31 06:14:30;;;;;;;1.60;1.50;;;23.80;33.00;;;;;;5006850;28;20207;-43
2021/05/31 06:16:56;;;;;;;1.80;1.70;;;23.80;32.40;;;;;;5002570;28;20207;-46
2021/05/31 06:19:22;;;;;;;5.38;1.83;;;23.80;33.00;;;;;;4996575;28;20265;-42
2021/05/31 06:21:47;;;;;;;3.60;1.60;;;23.80;33.00;;;;;;5008989;28;20230;-44
2021/05/31 06:24:13;;;;;;;3.47;1.70;;;23.80;33.00;;;;;;5006524;28;20210;-44
2021/05/31 06:26:39;;;;;;;3.05;1.90;;;23.80;32.90;;;;;;4999189;28;20629;-44
2021/05/31 06:29:05;;;;;;;3.95;2.20;;;23.80;33.00;;;;;;4992041;28;20224;-41
2021/05/31 06:31:31;;;;;;;3.92;3.13;;;23.80;32.10;;;;;;4995648;28;20274;-43
2021/05/31 06:33:57;;;;;;;8.50;3.50;;;23.00;29.40;;;;;;5000466;28;20674;-44
2021/05/31 06:36:25;;;;;;;4.05;3.67;;;22.20;29.10;;;;;;5002593;28;20639;-43
2021/05/31 06:38:50;;;;;;;4.28;3.33;;;21.70;28.40;;;;;;4997240;28;20223;-44
2021/05/31 06:41:16;;;;;;;3.88;3.20;;;22.00;28.10;;;;;;5005722;28;20296;-41
2021/05/31 06:43:42;;;;;;;3.03;2.80;;;22.40;28.40;;;;;;4992752;28;20208;-46
2021/05/31 06:46:08;;;;;;;3.47;3.17;;;22.70;28.10;;;;;;4991645;28;20574;-42
2021/05/31 06:48:34;;;;;;;3.22;3.03;;;22.90;28.00;;;;;;4990287;28;20231;-45
2021/05/31 06:51:00;;;;;;;3.15;2.80;;;23.10;28.10;;;;;;5004852;28;20565;-43
2021/05/31 06:53:26;;;;;;;2.85;2.65;;;23.20;28.20;;;;;;5000932;28;20218;-42
2021/05/31 06:55:52;;;;;;;2.45;2.25;;;23.30;28.50;;;;;;5008869;28;20226;-48
2021/05/31 06:58:18;;;;;;;2.65;2.08;;;23.30;29.30;;;;;;5007825;28;20239;-45
2021/05/31 07:00:44;;;;;;;2.67;2.20;;;23.40;29.00;;;;;;5003292;28;20209;-41
2021/05/31 07:03:10;;;;;;;2.00;1.90;;;23.50;29.20;;;;;;5008334;28;20294;-45
2021/05/31 07:05:36;;;;;;;2.92;2.10;;;23.50;29.30;;;;;;4977342;28;20234;-46
2021/05/31 07:08:02;;;;;;;2.03;1.80;;;23.60;29.60;;;;;;5012876;28;20372;-41
2021/05/31 07:10:29;;;;;;;3.03;2.45;;;23.70;29.90;;;;;;5026485;28;20589;-43
2021/05/31 07:12:55;;;;;;;3.40;1.95;;;23.70;29.90;;;;;;5022972;28;20210;-43
2021/05/31 07:15:21;;;;;;;4.35;2.58;;;23.80;29.90;;;;;;5021517;28;20683;-43
2021/05/31 07:17:47;;;;;;;4.05;2.55;;;23.80;29.20;;;;;;5014693;28;20226;-47
2021/05/31 07:20:13;;;;;;;3.75;2.67;;;23.70;28.50;;;;;;5017584;28;20210;-45
2021/05/31 07:22:39;;;;;;;3.85;2.47;;;23.70;28.40;;;;;;5027551;28;20226;-46
2021/05/31 07:25:05;;;;;;;2.70;2.50;;;23.60;28.40;;;;;;5028927;28;20198;-44
2021/05/31 07:27:31;;;;;;;3.42;2.60;;;23.60;27.60;;;;;;5017255;28;20710;-50
2021/05/31 07:29:57;;;;;;;2.53;2.33;;;23.60;27.70;;;;;;5021027;28;20206;-47
2021/05/31 07:32:23;;;;;;;2.55;2.25;;;23.60;27.70;;;;;;5027059;28;20207;-47
2021/05/31 07:34:49;;;;;;;4.20;2.63;;;23.60;27.80;;;;;;5020431;28;20211;-47
2021/05/31 07:37:15;;;;;;;3.00;2.72;;;23.50;27.30;;;;;;5026328;28;20226;-43
2021/05/31 07:39:41;;;;;;;4.13;2.65;;;23.50;27.20;;;;;;5029591;28;20225;-44
2021/05/31 07:42:07;;;;;;;3.58;2.72;;;23.50;27.10;;;;;;5026291;28;20229;-47
2021/05/31 07:44:33;;;;;;;2.85;2.35;;;23.50;26.90;;;;;;5012073;28;20613;-47
2021/05/31 07:47:00;;;;;;;3.03;2.72;;;23.50;26.90;;;;;;5024020;28;20288;-48
2021/05/31 07:49:26;;;;;;;3.08;2.80;;;23.50;26.80;;;;;;5029076;28;20199;-42
2021/05/31 07:51:54;;;;;;;4.03;2.97;;;23.50;27.00;;;;;;5025135;28;20210;-47
2021/05/31 07:54:21;;;;;;;2.50;2.30;;;23.50;26.60;;;;;;5025762;28;20206;-41
2021/05/31 07:56:47;;;;;;;4.43;2.60;;;23.50;26.90;;;;;;5023582;28;20345;-41
2021/05/31 07:59:13;;;;;;;2.97;2.20;;;23.50;27.30;;;;;;5028232;28;20245;-45
2021/05/31 08:01:39;;;;;;;4.22;2.35;;;23.60;27.60;;;;;;5026234;28;20238;-44
2021/05/31 08:04:06;;;;;;;4.43;2.38;;;23.60;27.90;;;;;;5026087;28;20206;-47
2021/05/31 08:06:32;;;;;;;2.83;2.30;;;23.60;28.40;;;;;;5027327;28;20233;-41
2021/05/31 08:08:58;;;;;;;4.45;2.50;;;23.70;28.50;;;;;;5028542;28;20535;-44
2021/05/31 08:11:24;;;;;;;4.70;2.53;;;23.60;28.40;;;;;;5029878;28;20400;-42
2021/05/31 08:13:50;;;;;;;3.17;2.20;;;23.60;28.40;;;;;;5029533;28;20261;-42
2021/05/31 08:16:18;;;;;;;2.13;1.77;;;23.60;28.60;;;;;;5030119;28;20225;-49
2021/05/31 08:18:44;;;;;;;2.40;2.25;;;23.60;28.90;;;;;;5029043;28;20219;-46
2021/05/31 08:21:10;;;;;;;4.20;2.45;;;23.60;29.10;;;;;;5029223;28;20652;-43
2021/05/31 08:23:36;;;;;;;3.28;2.00;;;23.60;29.20;;;;;;5025469;28;20213;-44
2021/05/31 08:26:02;;;;;;;2.30;2.08;;;23.60;29.40;;;;;;5032228;28;20214;-45
2021/05/31 08:28:28;;;;;;;2.35;2.00;;;23.60;29.50;;;;;;5031601;28;20222;-42
2021/05/31 08:30:54;;;;;;;2.08;1.90;;;23.60;29.60;;;;;;5032608;28;20210;-43
2021/05/31 08:33:20;;;;;;;2.03;1.92;;;23.60;29.70;;;;;;5033208;28;20218;-44
2021/05/31 08:35:45;;;;;;;2.22;2.00;;;23.60;29.80;;;;;;5033467;28;20674;-42
2021/05/31 08:38:11;;;;;;;3.00;2.17;;;23.60;29.90;;;;;;5032412;28;20228;-48
2021/05/31 08:40:37;;;;;;;3.80;1.70;;;23.60;29.90;;;;;;5032493;28;20215;-46
2021/05/31 08:43:03;;;;;;;2.20;2.00;;;23.60;30.00;;;;;;5033139;28;20563;-44
2021/05/31 08:45:30;;;;;;;2.25;2.05;;;23.60;30.00;;;;;;5032961;28;20219;-44
2021/05/31 08:47:56;;;;;;;2.60;2.25;;;23.60;30.00;;;;;;5032440;28;20226;-44
2021/05/31 08:50:22;;;;;;;2.03;1.90;;;23.60;30.00;;;;;;5032281;28;20214;-45
2021/05/31 08:52:48;;;;;;;1.92;1.83;;;23.60;30.00;;;;;;5032692;28;20202;-47
2021/05/31 08:55:14;;;;;;;2.50;2.30;;;23.60;30.10;;;;;;5032446;28;20615;-46
2021/05/31 08:57:40;;;;;;;2.60;2.40;;;23.60;30.00;;;;;;5032057;28;20742;-49
2021/05/31 09:00:06;;;;;;;2.03;1.92;;;23.60;30.00;;;;;;5032649;28;20206;-44
2021/05/31 09:02:33;;;;;;;2.13;1.92;;;23.60;30.00;;;;;;5032527;28;20324;-48
2021/05/31 09:04:59;;;;;;;2.78;2.10;;;23.60;30.10;;;;;;5032632;28;20536;-45
2021/05/31 09:07:25;;;;;;;2.95;1.80;;;23.60;30.00;;;;;;5032165;28;20289;-45
2021/05/31 09:09:51;;;;;;;2.10;1.90;;;23.60;30.00;;;;;;5031509;28;20256;-44
2021/05/31 09:12:23;;;;;;;2.28;2.10;;;23.60;30.10;;;;;;5032004;28;20210;-41
2021/05/31 09:14:49;;;;;;;2.40;1.80;;;23.60;30.20;;;;;;5032237;28;20301;-43
2021/05/31 09:17:15;;;;;;;1.85;1.75;;;23.60;30.20;;;;;;5031877;28;20222;-47
2021/05/31 09:19:40;;;;;;;2.45;2.20;;;23.60;30.20;;;;;;5030771;28;20214;-44
2021/05/31 09:22:06;;;;;;;2.42;1.95;;;23.60;30.20;;;;;;5019882;28;20229;-43
2021/05/31 09:24:32;;;;;;;1.80;1.70;;;23.60;30.20;;;;;;5026340;28;20256;-42
2021/05/31 09:27:00;;;;;;;2.28;2.00;;;23.60;30.00;;;;;;5023487;28;20694;-39
2021/05/31 09:29:26;;;;;;;6.38;2.40;;;23.60;30.20;;;;;;5028829;28;20199;-41
2021/05/31 09:31:52;;;;;;;3.03;2.00;;;23.70;31.90;;;;;;5023426;28;20213;-40
2021/05/31 09:34:18;;;;;;;4.55;1.95;;;23.80;30.90;;;;;;5030089;28;20576;-40
2021/05/31 09:36:44;;;;;;;5.13;2.10;;;23.80;30.70;;;;;;5028287;28;20222;-42
2021/05/31 09:39:10;;;;;;;4.05;1.80;;;23.80;30.70;;;;;;5028817;28;20254;-40
2021/05/31 09:41:36;;;;;;;3.33;2.25;;;23.70;30.60;;;;;;5027359;28;20214;-40
2021/05/31 09:44:02;;;;;;;4.72;1.92;;;23.70;30.60;;;;;;5030767;28;20207;-43
2021/05/31 09:46:28;;;;;;;2.80;2.08;;;23.80;31.90;;;;;;5025395;28;20222;-40
2021/05/31 09:48:54;;;;;;;3.42;2.58;;;23.80;31.20;;;;;;5030821;28;20207;-41
2021/05/31 09:51:20;;;;;;;4.78;2.58;;;23.80;30.00;;;;;;5015784;28;20294;-39
2021/05/31 09:53:48;;;;;;;2.90;2.10;;;23.60;28.50;;;;;;5028615;28;20701;-43
2021/05/31 09:56:14;;;;;;;2.60;2.40;;;23.60;28.40;;;;;;5021335;28;20253;-43
2021/05/31 09:58:40;;;;;;;3.85;2.92;;;23.60;28.20;;;;;;5021331;28;20202;-47
2021/05/31 10:01:06;;;;;;;4.32;2.50;;;23.60;27.70;;;;;;5027867;28;20218;-45
2021/05/31 10:03:39;;;;;;;4.72;2.35;;;23.50;27.40;;;;;;5030063;28;20217;-43
2021/05/31 10:06:10;;;;;;;2.38;2.25;;;23.50;27.00;;;;;;5028837;28;20221;-46
2021/05/31 10:08:43;;;;;;;2.20;2.00;;;23.50;26.90;;;;;;5028320;28;20205;-46
2021/05/31 10:11:09;;;;;;;2.10;1.95;;;23.50;26.60;;;;;;5031215;28;20253;-44
2021/05/31 10:13:35;;;;;;;2.42;2.22;;;23.50;26.40;;;;;;5024078;28;20219;-46
2021/05/31 10:16:01;;;;;;;3.20;2.50;;;23.40;26.10;;;;;;5012774;28;20222;-49
2021/05/31 10:18:27;;;;;;;2.97;2.17;;;23.40;26.00;;;;;;5017050;28;20607;-42
2021/05/31 10:20:53;;;;;;;2.25;2.10;;;23.40;26.20;;;;;;5030518;28;20244;-44
2021/05/31 10:23:19;;;;;;;2.75;2.55;;;23.40;25.90;;;;;;5030740;28;20210;-44
2021/05/31 10:25:47;;;;;;;2.55;2.35;;;23.40;25.90;;;;;;5029202;28;20233;-47
2021/05/31 10:28:14;;;;;;;2.40;2.20;;;23.40;25.80;;;;;;5026978;28;20206;-44
2021/05/31 10:30:40;;;;;;;3.17;2.50;;;23.40;25.60;;;;;;5022483;28;20210;-47
2021/05/31 10:33:06;;;;;;;2.20;2.00;;;23.40;25.70;;;;;;5026957;28;20209;-49
2021/05/31 10:35:32;;;;;;;2.65;2.25;;;23.40;25.40;;;;;;5030397;28;20202;-41
2021/05/31 10:37:58;;;;;;;3.22;2.63;;;23.40;25.70;;;;;;5029624;28;20336;-46
2021/05/31 10:40:24;;;;;;;8.07;3.33;;;23.50;25.60;;;;;;5028557;28;20663;-47
2021/05/31 10:42:50;;;;;;;2.22;2.10;;;23.40;25.20;;;;;;5021024;28;20317;-44
2021/05/31 10:45:16;;;;;;;3.35;2.20;;;23.40;25.30;;;;;;5030807;28;20571;-46
2021/05/31 10:47:42;;;;;;;2.22;2.08;;;23.40;25.10;;;;;;5028479;28;20213;-46
2021/05/31 10:50:08;;;;;;;1.90;1.80;;;23.40;25.00;;;;;;5030207;28;20738;-48
2021/05/31 10:52:34;;;;;;;2.78;2.22;;;23.40;24.90;;;;;;5028494;28;20199;-49
2021/05/31 10:55:00;;;;;;;2.35;1.98;;;23.40;24.40;;;;;;5030141;28;20615;-45
2021/05/31 10:57:26;;;;;;;2.55;2.25;;;23.40;24.40;;;;;;5023252;28;20243;-50
2021/05/31 10:59:52;;;;;;;4.05;2.15;;;23.40;24.20;;;;;;5024385;28;20202;-50
2021/05/31 11:02:17;;;;;;;2.10;1.90;;;23.40;24.30;;;;;;5028253;28;20234;-46
2021/05/31 11:04:43;;;;;;;2.40;1.80;;;23.40;24.40;;;;;;5031489;28;20228;-43
2021/05/31 11:07:11;;;;;;;2.50;2.15;;;23.40;24.40;;;;;;5029244;28;20695;-46
2021/05/31 11:09:37;;;;;;;3.28;2.05;;;23.50;24.50;;;;;;5019615;28;20206;-49
2021/05/31 11:12:05;;;;;;;3.40;2.30;;;23.50;24.30;;;;;;5025537;28;20268;-46
2021/05/31 11:14:31;;;;;;;3.10;2.30;;;23.50;24.30;;;;;;5029686;28;20218;-43
2021/05/31 11:16:56;;;;;;;2.00;1.90;;;23.50;24.00;;;;;;5027267;28;20535;-46
2021/05/31 11:19:22;;;;;;;2.30;2.10;;;23.40;23.70;;;;;;5027087;28;20206;-45
2021/05/31 11:21:48;;;;;;;3.30;1.90;;;23.40;23.50;;;;;;5024445;28;20569;-44
2021/05/31 11:24:14;;;;;;;3.45;2.00;;;23.40;23.40;;;;;;5026378;28;20207;-47
2021/05/31 11:26:40;;;;;;;1.90;1.80;;;23.50;23.50;;;;;;5030280;28;20265;-45
2021/05/31 11:29:06;;;;;;;7.13;4.60;;;23.50;23.30;;;;;;5024118;28;20698;-41
2021/05/31 11:31:33;;;;;;;9.10;5.82;;;23.50;23.30;;;;;;5024861;28;20211;-43
2021/05/31 11:33:59;;;;;;;17.13;10.15;;;23.50;23.40;;;;;;5024369;28;20207;-47
2021/05/31 11:36:25;;;;;;;10.38;7.50;;;23.50;23.40;;;;;;5018303;28;20242;-46
2021/05/31 11:38:51;;;;;;;20.35;15.30;;;23.60;23.60;;;;;;5028669;28;20199;-47
2021/05/31 11:41:17;;;;;;;28.17;18.20;;;23.50;23.60;;;;;;5029656;28;20288;-47
2021/05/31 11:43:42;;;;;;;24.25;16.75;;;23.50;23.40;;;;;;5030843;28;20252;-48
2021/05/31 11:46:08;;;;;;;28.55;17.50;;;23.50;23.30;;;;;;5024952;28;20237;-46
2021/05/31 11:48:34;;;;;;;23.80;15.63;;;23.50;23.20;;;;;;5027035;28;20209;-48
2021/05/31 11:51:00;;;;;;;20.58;13.43;;;23.50;23.20;;;;;;5016693;28;20256;-42
2021/05/31 11:53:26;;;;;;;22.80;13.20;;;23.50;23.20;;;;;;5015377;28;20199;-44
2021/05/31 11:55:52;;;;;;;15.38;9.18;;;23.50;23.10;;;;;;5018612;28;20309;-45
2021/05/31 11:58:20;;;;;;;10.48;7.88;;;23.50;22.90;;;;;;5026862;28;20214;-44
2021/05/31 12:00:46;;;;;;;11.35;7.00;;;23.40;22.70;;;;;;5018880;28;20240;-47
2021/05/31 12:03:12;;;;;;;9.35;6.70;;;23.40;22.70;;;;;;5025438;28;20234;-42
2021/05/31 12:05:38;;;;;;;8.65;6.13;;;23.50;22.70;;;;;;5033198;28;20218;-47
2021/05/31 12:08:04;;;;;;;5.57;4.57;;;23.50;22.80;;;;;;5021232;28;20242;-42
2021/05/31 12:10:30;;;;;;;6.60;4.78;;;23.50;22.70;;;;;;5026827;28;20631;-46
2021/05/31 12:12:56;;;;;;;5.13;4.00;;;23.40;22.50;;;;;;5032808;28;20198;-45
2021/05/31 12:15:22;;;;;;;4.43;3.35;;;23.40;22.50;;;;;;5033977;28;20268;-44
2021/05/31 12:17:48;;;;;;;3.40;3.10;;;23.40;22.10;;;;;;5021536;28;20217;-44
2021/05/31 12:20:14;;;;;;;3.72;3.03;;;23.40;22.00;;;;;;5021468;28;20203;-43
2021/05/31 12:22:40;;;;;;;3.13;2.72;;;23.40;21.90;;;;;;5034759;28;20230;-41
2021/05/31 12:25:06;;;;;;;2.80;2.60;;;23.40;21.70;;;;;;5028614;28;20262;-43
2021/05/31 12:27:32;;;;;;;2.72;2.38;;;23.40;21.80;;;;;;5023617;28;20272;-43
2021/05/31 12:29:58;;;;;;;3.20;2.40;;;23.40;21.80;;;;;;5027941;28;20198;-42
2021/05/31 12:32:24;;;;;;;2.38;2.17;;;23.40;21.80;;;;;;5030847;28;20207;-44
2021/05/31 12:34:50;;;;;;;2.97;2.17;;;23.40;21.80;;;;;;5030559;28;20716;-43
2021/05/31 12:37:16;;;;;;;2.60;2.28;;;23.40;21.90;;;;;;5032981;28;20202;-40
2021/05/31 12:39:42;;;;;;;2.83;2.50;;;23.40;21.80;;;;;;5016649;28;20226;-42
2021/05/31 12:42:08;;;;;;;3.60;2.80;;;23.40;21.90;;;;;;5018530;28;20238;-47
2021/05/31 12:44:34;;;;;;;2.88;2.25;;;23.40;21.90;;;;;;5018393;28;20302;-47
2021/05/31 12:47:00;;;;;;;2.00;1.83;;;23.30;21.80;;;;;;5021483;28;20634;-48
2021/05/31 12:49:26;;;;;;;2.42;1.90;;;23.30;21.70;;;;;;5027606;28;20261;-47